Time;durP1;ratioP1;P1;durP2;ratioP2;P2;SDS_P1;SDS_P2;PMS_P1;PMS_P2;Temp;Humidity;BMP_temperature;BMP_pressure;BME280_temperature;BME280_humidity;BME280_pressure;Samples;Min_cycle;Max_cycle;Signal;HPM_P1;HPM_P2
2022/01/06 00:01:46;;;;;;;10.88;2.30;;;4.20;99.90;;;;;;5072220;28;20072;-71
2022/01/06 00:04:12;;;;;;;8.80;1.83;;;4.20;99.90;;;;;;5089154;28;20044;-71
2022/01/06 00:06:41;;;;;;;10.77;2.80;;;4.10;99.90;;;;;;5088181;28;20385;-72
2022/01/06 00:09:11;;;;;;;6.13;2.08;;;4.10;99.90;;;;;;5072162;28;20052;-71
2022/01/06 00:11:39;;;;;;;9.65;2.00;;;4.00;99.90;;;;;;5071211;28;20132;-71
2022/01/06 00:14:12;;;;;;;13.30;2.78;;;3.90;99.90;;;;;;5071889;28;20084;-70
2022/01/06 00:16:45;;;;;;;11.80;2.58;;;3.90;99.90;;;;;;5071558;28;20127;-70
2022/01/06 00:24:40;;;;;;;10.25;2.75;;;3.70;99.90;;;;;;5072108;28;20097;-70
2022/01/06 00:27:08;;;;;;;12.52;2.83;;;3.60;99.90;;;;;;5070564;28;20079;-70
2022/01/06 00:29:35;;;;;;;19.98;3.35;;;3.50;99.90;;;;;;5088424;28;20048;-69
2022/01/06 00:32:02;;;;;;;10.85;3.30;;;3.50;99.90;;;;;;5071962;28;20162;-70
2022/01/06 00:34:28;;;;;;;17.60;3.05;;;3.50;99.90;;;;;;5087382;28;20056;-71
2022/01/06 00:36:55;;;;;;;13.75;3.67;;;3.40;99.90;;;;;;5071368;28;20557;-70
2022/01/06 00:39:27;;;;;;;13.60;3.42;;;3.40;99.90;;;;;;5088792;28;20048;-71
2022/01/06 00:41:55;;;;;;;17.88;3.58;;;3.40;99.90;;;;;;5088214;28;20117;-71
2022/01/06 00:44:24;;;;;;;16.27;3.75;;;3.40;99.90;;;;;;5071832;28;20441;-71
2022/01/06 00:46:51;;;;;;;16.50;3.80;;;3.40;99.90;;;;;;5070870;28;20048;-71
2022/01/06 00:49:18;;;;;;;21.83;4.40;;;3.40;99.90;;;;;;5071810;28;20098;-70
2022/01/06 00:51:45;;;;;;;12.60;3.30;;;3.60;99.90;;;;;;5071676;28;20113;-71
2022/01/06 00:54:12;;;;;;;16.38;3.83;;;3.60;99.90;;;;;;5072199;28;20484;-71
2022/01/06 00:56:38;;;;;;;14.85;3.92;;;3.60;99.90;;;;;;5051091;28;20081;-71
2022/01/06 00:59:05;;;;;;;10.60;2.50;;;3.60;99.90;;;;;;5051545;28;20049;-71
2022/01/06 01:01:34;;;;;;;17.35;2.97;;;3.60;99.90;;;;;;5050841;28;20110;-72
2022/01/06 01:04:01;;;;;;;12.50;3.25;;;3.60;99.90;;;;;;5051444;28;20065;-71
2022/01/06 01:06:27;;;;;;;11.02;3.40;;;3.60;99.90;;;;;;5051005;28;20076;-71
2022/01/06 01:08:54;;;;;;;19.60;3.45;;;3.60;99.90;;;;;;5051056;28;20092;-71
2022/01/06 01:11:21;;;;;;;17.40;3.42;;;3.70;99.90;;;;;;5051375;28;20185;-71
2022/01/06 01:13:55;;;;;;;14.55;2.80;;;3.70;99.90;;;;;;5051360;28;20061;-71
2022/01/06 01:16:27;;;;;;;15.95;2.83;;;3.70;99.90;;;;;;5050351;28;20045;-71
2022/01/06 01:18:57;;;;;;;12.55;2.75;;;3.70;99.90;;;;;;5086058;28;20110;-71
2022/01/06 01:21:27;;;;;;;12.40;2.90;;;3.70;99.90;;;;;;5071043;28;20083;-71
2022/01/06 01:23:54;;;;;;;13.75;2.85;;;3.70;99.90;;;;;;5070724;28;20051;-71
2022/01/06 01:26:21;;;;;;;9.77;2.53;;;3.70;99.90;;;;;;5088040;28;20052;-71
2022/01/06 01:28:50;;;;;;;12.15;2.30;;;3.80;99.90;;;;;;5070615;28;20544;-71
2022/01/06 01:31:25;;;;;;;11.48;2.75;;;3.80;99.90;;;;;;5088041;28;20052;-71
2022/01/06 01:33:53;;;;;;;10.73;2.40;;;3.90;99.90;;;;;;5071715;28;20056;-72
2022/01/06 01:36:21;;;;;;;22.17;2.88;;;3.90;99.90;;;;;;5070625;28;20052;-71
2022/01/06 01:38:48;;;;;;;20.23;3.60;;;3.90;99.90;;;;;;5070921;28;20492;-71
2022/01/06 01:41:16;;;;;;;15.15;3.17;;;3.90;99.90;;;;;;5071030;28;20056;-72
2022/01/06 01:43:46;;;;;;;7.65;2.70;;;3.90;99.90;;;;;;5087503;28;20106;-71
2022/01/06 01:46:15;;;;;;;10.52;2.72;;;4.00;99.90;;;;;;5090166;28;20102;-72
2022/01/06 01:48:48;;;;;;;16.30;3.17;;;3.90;99.90;;;;;;5074757;28;20052;-71
2022/01/06 01:51:15;;;;;;;16.55;2.60;;;3.90;99.90;;;;;;5074175;28;20396;-71
2022/01/06 01:53:43;;;;;;;14.48;2.85;;;3.80;99.90;;;;;;5074489;28;20113;-71
2022/01/06 01:56:13;;;;;;;9.50;2.28;;;3.80;99.90;;;;;;5074337;28;20053;-71
2022/01/06 01:58:40;;;;;;;12.13;2.80;;;3.70;99.90;;;;;;5074200;28;20114;-72
2022/01/06 02:01:07;;;;;;;11.27;3.13;;;3.70;99.90;;;;;;5074202;28;20091;-72
2022/01/06 02:03:34;;;;;;;9.60;2.88;;;3.70;99.90;;;;;;5074608;28;20407;-71
2022/01/06 02:06:01;;;;;;;13.25;3.50;;;3.70;99.90;;;;;;5073705;28;20098;-71
2022/01/06 02:08:28;;;;;;;13.18;3.55;;;3.70;99.90;;;;;;5074289;28;20182;-71
2022/01/06 02:10:56;;;;;;;26.85;4.10;;;3.60;99.90;;;;;;5073766;28;20052;-71
2022/01/06 02:13:28;;;;;;;12.88;2.85;;;3.60;99.90;;;;;;5073863;28;20076;-71
2022/01/06 02:15:55;;;;;;;11.00;2.70;;;3.60;99.90;;;;;;5074101;28;20048;-71
2022/01/06 02:18:22;;;;;;;16.67;3.17;;;3.60;99.90;;;;;;5073192;28;20119;-71
2022/01/06 02:20:50;;;;;;;9.27;2.50;;;3.60;99.90;;;;;;5074083;28;20044;-71
2022/01/06 02:23:17;;;;;;;16.67;3.22;;;3.60;99.90;;;;;;5073248;28;20049;-72
2022/01/06 02:25:45;;;;;;;16.83;3.85;;;3.50;99.90;;;;;;5073451;28;20139;-71
2022/01/06 02:28:11;;;;;;;18.73;3.30;;;3.50;99.90;;;;;;5073799;28;20095;-72
2022/01/06 02:30:38;;;;;;;10.80;3.90;;;3.40;99.90;;;;;;5074761;28;20076;-71
2022/01/06 02:33:06;;;;;;;17.23;3.20;;;3.40;99.90;;;;;;5073049;28;20052;-72
2022/01/06 02:35:33;;;;;;;17.33;3.72;;;3.30;99.90;;;;;;5074052;28;20054;-71
2022/01/06 02:38:02;;;;;;;15.68;3.58;;;3.30;99.90;;;;;;5073674;28;20152;-71
2022/01/06 02:40:28;;;;;;;12.40;2.97;;;3.30;99.90;;;;;;5073261;28;20453;-71
2022/01/06 02:42:58;;;;;;;15.40;3.60;;;3.30;99.90;;;;;;5073548;28;20088;-72
2022/01/06 02:45:27;;;;;;;12.13;2.75;;;3.20;99.90;;;;;;5073982;28;20392;-71
2022/01/06 02:47:54;;;;;;;12.30;2.30;;;3.20;99.90;;;;;;5072582;28;20045;-72
2022/01/06 02:50:21;;;;;;;15.07;4.60;;;3.10;99.90;;;;;;5073750;28;20061;-72
2022/01/06 02:52:48;;;;;;;10.00;2.83;;;3.10;99.90;;;;;;5072974;28;20508;-72
2022/01/06 02:55:17;;;;;;;9.98;2.97;;;3.00;99.90;;;;;;5072981;28;20090;-71
2022/01/06 02:57:45;;;;;;;12.35;3.75;;;2.90;99.90;;;;;;5072105;28;20088;-71
2022/01/06 03:00:14;;;;;;;13.82;2.63;;;2.90;99.90;;;;;;5072754;28;20381;-71
2022/01/06 03:02:43;;;;;;;17.20;3.60;;;2.80;99.90;;;;;;5073417;28;20649;-71
2022/01/06 03:05:10;;;;;;;14.05;2.88;;;2.70;99.90;;;;;;5073223;28;20131;-72
2022/01/06 03:07:37;;;;;;;11.15;2.67;;;2.60;99.90;;;;;;5072331;28;20048;-71
2022/01/06 03:10:07;;;;;;;8.13;2.92;;;2.60;99.90;;;;;;5090158;28;20044;-71
2022/01/06 03:12:39;;;;;;;11.25;3.10;;;2.60;99.90;;;;;;5073471;28;20098;-72
2022/01/06 03:15:08;;;;;;;21.35;4.00;;;2.60;99.90;;;;;;5072401;28;20428;-72
2022/01/06 03:17:35;;;;;;;9.35;2.60;;;2.60;99.90;;;;;;5072604;28;20044;-72
2022/01/06 03:20:02;;;;;;;14.35;3.35;;;2.50;99.90;;;;;;5073067;28;20458;-72
2022/01/06 03:22:29;;;;;;;10.40;3.38;;;2.50;99.90;;;;;;5071707;28;20075;-72
2022/01/06 03:24:55;;;;;;;14.80;2.78;;;2.40;99.90;;;;;;5072970;28;20162;-71
2022/01/06 03:27:22;;;;;;;13.30;3.38;;;2.40;99.90;;;;;;5072399;28;20373;-71
2022/01/06 03:29:50;;;;;;;8.75;2.33;;;2.30;99.90;;;;;;5072084;28;20109;-71
2022/01/06 03:32:18;;;;;;;18.48;3.22;;;2.30;99.90;;;;;;5072505;28;20056;-71
2022/01/06 03:34:45;;;;;;;8.40;2.10;;;2.30;99.90;;;;;;5072645;28;20044;-70
2022/01/06 03:37:12;;;;;;;14.77;2.58;;;2.30;99.90;;;;;;5071902;28;20076;-71
2022/01/06 03:39:39;;;;;;;12.52;2.78;;;2.20;99.90;;;;;;5072629;28;20060;-71
2022/01/06 03:42:07;;;;;;;10.43;3.05;;;2.20;99.90;;;;;;5072153;28;20084;-72
2022/01/06 03:44:34;;;;;;;9.90;2.97;;;2.10;99.90;;;;;;5071820;28;20101;-72
2022/01/06 03:47:02;;;;;;;14.52;3.22;;;2.10;99.90;;;;;;5088951;28;20178;-72
2022/01/06 03:49:29;;;;;;;12.55;2.90;;;2.00;99.90;;;;;;5072934;28;20075;-71
2022/01/06 03:51:56;;;;;;;11.55;2.60;;;2.00;99.90;;;;;;5072319;28;20117;-71
2022/01/06 03:54:23;;;;;;;15.52;3.22;;;2.00;99.90;;;;;;5072095;28;20088;-72
2022/01/06 03:56:50;;;;;;;21.45;4.10;;;2.00;99.90;;;;;;5071593;28;20110;-72
2022/01/06 03:59:17;;;;;;;12.60;3.03;;;2.00;99.90;;;;;;5072111;28;20105;-70
2022/01/06 04:01:44;;;;;;;15.55;3.70;;;2.00;99.90;;;;;;5072223;28;20052;-71
2022/01/06 04:04:14;;;;;;;16.92;3.35;;;2.00;99.90;;;;;;5071124;28;20121;-71
2022/01/06 04:06:41;;;;;;;14.77;3.75;;;2.00;99.90;;;;;;5072040;28;20113;-71
2022/01/06 04:09:09;;;;;;;15.40;3.40;;;2.00;99.90;;;;;;5072206;28;20083;-71
2022/01/06 04:11:35;;;;;;;14.27;4.03;;;2.00;99.90;;;;;;5071854;28;20146;-71
2022/01/06 04:14:02;;;;;;;16.75;3.55;;;2.00;99.90;;;;;;5071877;28;20495;-71
2022/01/06 04:16:32;;;;;;;22.67;4.80;;;1.90;99.90;;;;;;5071601;28;20095;-71
2022/01/06 04:18:59;;;;;;;20.65;3.95;;;1.90;99.90;;;;;;5072824;28;20076;-71
2022/01/06 04:21:27;;;;;;;13.02;3.38;;;1.90;99.90;;;;;;5072120;28;20053;-71
2022/01/06 04:23:53;;;;;;;14.73;3.38;;;1.90;99.90;;;;;;5071782;28;20080;-71
2022/01/06 04:26:20;;;;;;;23.58;4.97;;;1.90;99.90;;;;;;5088089;28;20088;-71
2022/01/06 04:28:47;;;;;;;16.63;3.75;;;1.90;99.90;;;;;;5071689;28;20044;-71
2022/01/06 04:31:14;;;;;;;19.58;4.00;;;1.90;99.90;;;;;;5072196;28;20486;-71
2022/01/06 04:33:41;;;;;;;27.42;5.25;;;1.90;99.90;;;;;;5071121;28;20143;-70
2022/01/06 04:36:09;;;;;;;17.00;4.45;;;1.80;99.90;;;;;;5072218;28;20052;-70
2022/01/06 04:38:38;;;;;;;13.02;3.60;;;1.80;99.90;;;;;;5088403;28;20091;-71
2022/01/06 04:41:05;;;;;;;16.80;3.78;;;1.80;99.90;;;;;;5071897;28;20052;-70
2022/01/06 04:43:32;;;;;;;16.65;4.60;;;1.80;99.90;;;;;;5088827;28;20083;-71
2022/01/06 04:46:00;;;;;;;17.52;3.35;;;1.80;99.90;;;;;;5070911;28;20593;-71
2022/01/06 04:48:27;;;;;;;15.70;3.85;;;1.80;99.90;;;;;;5071213;28;20565;-70
2022/01/06 04:50:54;;;;;;;20.55;3.20;;;1.80;99.90;;;;;;5071284;28;20056;-71
2022/01/06 04:53:21;;;;;;;16.00;3.47;;;1.70;99.90;;;;;;5071029;28;20447;-70
2022/01/06 04:55:51;;;;;;;18.67;3.15;;;1.60;99.90;;;;;;5071806;28;20416;-71
2022/01/06 04:58:18;;;;;;;20.40;3.85;;;1.50;99.90;;;;;;5071129;28;20045;-71
2022/01/06 05:00:44;;;;;;;16.52;2.92;;;1.40;99.90;;;;;;5071067;28;20052;-71
2022/01/06 05:03:11;;;;;;;13.57;3.38;;;1.30;99.90;;;;;;5071425;28;20091;-71
2022/01/06 05:05:38;;;;;;;14.15;3.22;;;1.30;99.90;;;;;;5071585;28;20446;-70
2022/01/06 05:08:05;;;;;;;14.30;3.15;;;1.20;99.90;;;;;;5070785;28;20053;-70
2022/01/06 05:10:32;;;;;;;15.93;3.15;;;1.10;99.90;;;;;;5071444;28;20531;-71
2022/01/06 05:13:01;;;;;;;8.25;2.72;;;1.10;99.90;;;;;;5071580;28;20087;-71
2022/01/06 05:15:28;;;;;;;11.57;3.20;;;1.00;99.90;;;;;;5059045;28;20396;-71
2022/01/06 05:17:54;;;;;;;18.58;4.38;;;1.10;99.90;;;;;;5055314;28;20524;-71
2022/01/06 05:20:25;;;;;;;15.05;3.10;;;1.00;99.90;;;;;;5066572;28;20086;-71
2022/01/06 05:22:55;;;;;;;13.25;3.08;;;0.90;99.90;;;;;;5067617;28;20400;-71
2022/01/06 05:25:25;;;;;;;12.50;2.88;;;0.90;99.90;;;;;;5065477;28;20053;-71
2022/01/06 05:27:52;;;;;;;25.73;3.72;;;0.80;99.90;;;;;;5066646;28;20072;-72
2022/01/06 05:30:21;;;;;;;19.52;3.80;;;0.80;99.90;;;;;;5067797;28;20076;-71
2022/01/06 05:32:47;;;;;;;10.80;3.05;;;0.70;99.90;;;;;;5066365;28;20186;-70
2022/01/06 05:35:14;;;;;;;12.80;2.90;;;0.70;99.90;;;;;;5067358;28;20480;-70
2022/01/06 05:37:41;;;;;;;14.20;2.80;;;0.70;99.90;;;;;;5069451;28;20080;-69
2022/01/06 05:40:09;;;;;;;15.98;3.08;;;0.60;99.90;;;;;;5078427;28;20084;-69
2022/01/06 05:42:36;;;;;;;16.00;3.67;;;0.60;99.90;;;;;;5067632;28;20048;-70
2022/01/06 05:45:05;;;;;;;12.70;3.45;;;0.50;99.90;;;;;;5069261;28;20103;-70
2022/01/06 05:47:33;;;;;;;15.45;4.65;;;0.50;99.90;;;;;;5063427;28;20072;-69
2022/01/06 05:50:00;;;;;;;20.10;3.33;;;0.50;99.90;;;;;;5063373;28;20479;-70
2022/01/06 05:52:26;;;;;;;16.17;4.10;;;0.40;99.90;;;;;;5075460;28;20404;-69
2022/01/06 05:54:53;;;;;;;16.73;3.35;;;0.40;99.90;;;;;;5066949;28;20084;-70
2022/01/06 05:57:20;;;;;;;14.63;3.45;;;0.40;99.90;;;;;;5064725;28;20542;-69
2022/01/06 05:59:47;;;;;;;16.45;3.30;;;0.40;99.90;;;;;;5071008;28;20076;-70
2022/01/06 06:02:14;;;;;;;11.07;3.00;;;0.40;99.90;;;;;;5069575;28;20052;-70
2022/01/06 06:04:42;;;;;;;11.50;3.75;;;0.40;99.90;;;;;;5058689;28;20453;-70
2022/01/06 06:07:09;;;;;;;16.40;3.25;;;0.40;99.90;;;;;;5069292;28;20126;-70
2022/01/06 06:09:36;;;;;;;11.98;3.67;;;0.40;99.90;;;;;;5069769;28;20044;-70
2022/01/06 06:12:03;;;;;;;14.43;3.30;;;0.40;99.90;;;;;;5069413;28;20091;-71
2022/01/06 06:14:30;;;;;;;16.33;2.97;;;0.30;99.90;;;;;;5069933;28;20052;-70
2022/01/06 06:16:56;;;;;;;10.23;2.92;;;0.30;99.90;;;;;;5068496;28;20087;-69
2022/01/06 06:19:23;;;;;;;14.68;3.20;;;0.20;99.90;;;;;;5064324;28;20052;-70
2022/01/06 06:21:51;;;;;;;15.55;3.33;;;0.20;99.90;;;;;;5065624;28;20081;-70
2022/01/06 06:24:20;;;;;;;12.13;2.97;;;0.20;99.90;;;;;;5067151;28;20508;-72
2022/01/06 06:26:47;;;;;;;15.48;2.83;;;0.20;99.90;;;;;;5070761;28;20049;-70
2022/01/06 06:29:13;;;;;;;17.92;4.43;;;0.30;99.90;;;;;;5065743;28;20068;-70
2022/01/06 06:31:40;;;;;;;11.35;2.95;;;0.10;99.90;;;;;;5068466;28;20122;-69
2022/01/06 06:34:09;;;;;;;17.08;4.18;;;0.10;99.90;;;;;;5072105;28;20143;-70
2022/01/06 06:36:35;;;;;;;15.77;4.38;;;0.10;99.90;;;;;;5073884;28;20139;-70
2022/01/06 06:39:04;;;;;;;19.42;3.70;;;0.10;99.90;;;;;;5073151;28;20137;-70
2022/01/06 06:41:31;;;;;;;17.27;3.30;;;0.00;99.90;;;;;;5073865;28;20048;-70
2022/01/06 06:43:57;;;;;;;17.05;3.33;;;0.00;99.90;;;;;;5073761;28;20113;-70
2022/01/06 06:46:25;;;;;;;18.85;3.70;;;-0.10;99.90;;;;;;5073229;28;20048;-70
2022/01/06 06:48:52;;;;;;;13.38;3.13;;;-0.10;99.90;;;;;;5071981;28;20083;-70
2022/01/06 06:51:18;;;;;;;15.18;4.07;;;-0.10;99.90;;;;;;5073447;28;20075;-70
2022/01/06 06:53:45;;;;;;;11.25;3.58;;;-0.10;99.90;;;;;;5071678;28;20086;-70
2022/01/06 06:56:13;;;;;;;9.15;3.10;;;-0.20;99.90;;;;;;5073238;28;20101;-70
2022/01/06 06:58:40;;;;;;;17.40;3.38;;;-0.20;99.90;;;;;;5073216;28;20049;-70
2022/01/06 07:01:07;;;;;;;20.40;3.42;;;-0.20;99.90;;;;;;5072878;28;20484;-70
2022/01/06 07:03:34;;;;;;;15.50;3.72;;;-0.20;99.90;;;;;;5073557;28;20455;-70
2022/01/06 07:06:01;;;;;;;21.27;3.67;;;-0.20;99.90;;;;;;5073335;28;20382;-70
2022/01/06 07:08:28;;;;;;;12.50;3.03;;;-0.20;99.90;;;;;;5072614;28;20076;-70
2022/01/06 07:10:55;;;;;;;17.23;3.40;;;-0.20;99.90;;;;;;5073080;28;20141;-69
2022/01/06 07:13:23;;;;;;;22.23;3.95;;;-0.20;99.90;;;;;;5073404;28;20125;-70
2022/01/06 07:15:50;;;;;;;15.93;4.38;;;-0.10;99.90;;;;;;5072934;28;20097;-70
2022/01/06 07:18:16;;;;;;;13.32;3.25;;;-0.10;99.90;;;;;;5073099;28;20098;-70
2022/01/06 07:20:43;;;;;;;15.05;3.33;;;0.00;99.90;;;;;;5072644;28;20056;-70
2022/01/06 07:23:10;;;;;;;13.20;3.63;;;-0.10;99.90;;;;;;5073086;28;20492;-71
2022/01/06 07:25:37;;;;;;;12.88;4.30;;;0.00;99.90;;;;;;5072735;28;20102;-71
2022/01/06 07:28:05;;;;;;;16.30;3.35;;;-0.10;99.90;;;;;;5071896;28;20412;-69
2022/01/06 07:30:33;;;;;;;14.40;3.05;;;0.00;99.90;;;;;;5072681;28;20472;-71
2022/01/06 07:33:01;;;;;;;20.40;4.00;;;0.10;99.90;;;;;;5072765;28;20053;-70
2022/01/06 07:35:28;;;;;;;24.35;4.18;;;0.20;99.90;;;;;;5071803;28;20079;-70
2022/01/06 07:37:55;;;;;;;13.68;3.08;;;0.20;99.90;;;;;;5071790;28;20079;-70
2022/01/06 07:40:22;;;;;;;18.95;4.38;;;0.30;99.90;;;;;;5072008;28;20094;-71
2022/01/06 07:42:49;;;;;;;22.98;4.85;;;0.40;99.90;;;;;;5072669;28;20102;-70
2022/01/06 07:45:18;;;;;;;20.08;3.70;;;0.50;99.90;;;;;;5072780;28;20124;-70
2022/01/06 07:47:56;;;;;;;13.80;3.22;;;0.60;99.90;;;;;;5072440;28;20051;-69
2022/01/06 07:50:24;;;;;;;17.83;3.90;;;0.60;99.90;;;;;;5072102;28;20067;-70
2022/01/06 07:52:51;;;;;;;11.57;4.32;;;0.70;99.90;;;;;;5072683;28;20080;-70
2022/01/06 07:55:18;;;;;;;20.17;3.60;;;0.70;99.90;;;;;;5072414;28;20092;-71
2022/01/06 07:57:45;;;;;;;14.57;4.93;;;0.70;99.90;;;;;;5071466;28;20056;-69
2022/01/06 08:00:13;;;;;;;20.67;3.88;;;0.70;99.90;;;;;;5072301;28;20076;-69
2022/01/06 08:02:40;;;;;;;17.40;4.10;;;0.80;99.90;;;;;;5071913;28;20483;-70
2022/01/06 08:05:12;;;;;;;21.23;4.15;;;0.80;99.90;;;;;;5071988;28;20052;-70
2022/01/06 08:07:39;;;;;;;17.33;4.75;;;0.90;99.90;;;;;;5072369;28;20478;-70
2022/01/06 08:10:07;;;;;;;17.17;4.75;;;1.00;99.90;;;;;;5071321;28;20139;-70
2022/01/06 08:12:34;;;;;;;13.73;4.30;;;1.10;99.90;;;;;;5072333;28;20400;-71
2022/01/06 08:15:01;;;;;;;26.75;4.55;;;1.20;99.90;;;;;;5071814;28;20560;-70
2022/01/06 08:17:27;;;;;;;20.38;4.22;;;1.30;99.90;;;;;;5071459;28;20052;-71
2022/01/06 08:19:54;;;;;;;21.42;4.68;;;1.40;99.90;;;;;;5072179;28;20064;-70
2022/01/06 08:22:22;;;;;;;16.15;4.63;;;1.70;99.90;;;;;;5072053;28;20131;-71
2022/01/06 08:24:52;;;;;;;13.32;4.43;;;2.00;99.90;;;;;;5071368;28;20075;-70
2022/01/06 08:27:18;;;;;;;18.70;4.68;;;2.50;99.90;;;;;;5073020;28;20446;-71
2022/01/06 08:29:45;;;;;;;48.55;4.90;;;3.00;99.90;;;;;;5072069;28;20075;-71
2022/01/06 08:32:12;;;;;;;15.55;4.20;;;3.50;99.90;;;;;;5071599;28;20140;-71
2022/01/06 08:34:39;;;;;;;18.60;4.38;;;3.90;99.90;;;;;;5071969;28;20135;-70
2022/01/06 08:37:05;;;;;;;12.85;3.75;;;4.30;99.90;;;;;;5071649;28;20142;-71
2022/01/06 08:39:34;;;;;;;15.75;4.68;;;4.70;99.90;;;;;;5072631;28;20484;-71
2022/01/06 08:42:00;;;;;;;18.30;4.18;;;4.90;99.90;;;;;;5071661;28;20098;-70
2022/01/06 08:44:28;;;;;;;14.50;3.90;;;5.10;99.90;;;;;;5072230;28;20092;-71
2022/01/06 08:46:55;;;;;;;14.85;4.60;;;5.40;99.90;;;;;;5070871;28;20052;-70
2022/01/06 08:49:22;;;;;;;20.33;5.93;;;5.60;99.90;;;;;;5071820;28;20051;-71
2022/01/06 08:51:49;;;;;;;22.92;3.78;;;5.60;99.90;;;;;;5071779;28;20550;-71
2022/01/06 08:54:16;;;;;;;17.52;4.35;;;5.30;99.90;;;;;;5071213;28;20064;-71
2022/01/06 08:56:44;;;;;;;11.82;4.30;;;5.10;99.90;;;;;;5074774;28;20087;-70
2022/01/06 08:59:11;;;;;;;12.65;3.80;;;4.90;99.90;;;;;;5076353;28;20500;-71
2022/01/06 09:01:38;;;;;;;17.30;4.05;;;5.10;99.90;;;;;;5076959;28;20080;-72
2022/01/06 09:04:05;;;;;;;18.27;5.05;;;5.40;99.90;;;;;;5075408;28;20135;-70
2022/01/06 09:06:32;;;;;;;11.10;3.55;;;6.10;99.90;;;;;;5075198;28;20139;-70
2022/01/06 09:08:59;;;;;;;14.88;3.60;;;6.80;99.90;;;;;;5075664;28;20527;-70
2022/01/06 09:11:25;;;;;;;12.07;4.93;;;7.60;99.90;;;;;;5075525;28;20080;-71
2022/01/06 09:13:53;;;;;;;9.13;3.78;;;8.10;99.90;;;;;;5075004;28;20052;-72
2022/01/06 09:16:20;;;;;;;15.30;4.00;;;8.60;99.90;;;;;;5075398;28;20084;-71
2022/01/06 09:18:47;;;;;;;14.50;3.83;;;8.90;99.90;;;;;;5075201;28;20084;-71
2022/01/06 09:21:16;;;;;;;15.98;4.70;;;9.10;99.90;;;;;;5074400;28;20057;-72
2022/01/06 09:23:43;;;;;;;13.38;3.80;;;9.40;99.90;;;;;;5075451;28;20053;-72
2022/01/06 09:26:10;;;;;;;14.55;3.97;;;9.70;99.90;;;;;;5074937;28;20095;-72
2022/01/06 09:28:37;;;;;;;20.50;4.25;;;9.80;99.90;;;;;;5074618;28;20087;-72
2022/01/06 09:31:05;;;;;;;14.48;3.95;;;10.10;99.90;;;;;;5075171;28;20096;-72
2022/01/06 09:33:32;;;;;;;19.83;3.95;;;10.60;99.90;;;;;;5075108;28;20472;-72
2022/01/06 09:35:59;;;;;;;13.20;3.75;;;10.80;99.90;;;;;;5074593;28;20094;-72
2022/01/06 09:38:26;;;;;;;12.15;3.65;;;10.80;99.90;;;;;;5075177;28;20084;-71
2022/01/06 09:40:52;;;;;;;11.25;4.13;;;11.00;99.90;;;;;;5075068;28;20083;-72
2022/01/06 09:43:25;;;;;;;16.40;3.65;;;11.50;99.90;;;;;;5074451;28;20124;-72
2022/01/06 09:45:52;;;;;;;15.02;3.88;;;11.70;99.90;;;;;;5074634;28;20057;-72
2022/01/06 09:48:22;;;;;;;10.27;3.38;;;12.40;99.90;;;;;;5074110;28;20135;-71
2022/01/06 09:50:49;;;;;;;15.80;3.65;;;12.50;99.90;;;;;;5074850;28;20492;-72
2022/01/06 09:53:21;;;;;;;9.80;3.42;;;12.80;99.90;;;;;;5074758;28;20098;-73
2022/01/06 09:55:48;;;;;;;10.93;3.83;;;13.00;99.90;;;;;;5074013;28;20056;-71
2022/01/06 09:58:23;;;;;;;12.93;3.67;;;13.30;99.90;;;;;;5074150;28;20056;-72
2022/01/06 10:00:50;;;;;;;12.70;3.67;;;13.20;96.80;;;;;;5075838;28;20122;-72
2022/01/06 10:03:17;;;;;;;14.68;3.47;;;13.40;99.90;;;;;;5073999;28;20137;-72
2022/01/06 10:05:49;;;;;;;12.57;3.42;;;13.70;97.30;;;;;;5074209;28;20130;-72
2022/01/06 10:08:27;;;;;;;12.73;3.95;;;13.90;97.30;;;;;;5073869;28;20131;-72
2022/01/06 10:11:08;;;;;;;11.38;3.28;;;14.10;93.30;;;;;;5072649;28;20135;-72
2022/01/06 10:13:35;;;;;;;10.80;3.28;;;14.30;95.00;;;;;;5073946;28;20136;-72
2022/01/06 10:16:15;;;;;;;9.50;3.13;;;14.20;95.90;;;;;;5074033;28;20053;-72
2022/01/06 10:19:05;;;;;;;11.90;4.03;;;14.50;93.00;;;;;;5072480;28;20080;-72
2022/01/06 10:21:36;;;;;;;9.60;3.13;;;14.60;93.50;;;;;;5065067;28;20629;-72
2022/01/06 10:24:07;;;;;;;10.63;3.67;;;14.70;93.70;;;;;;5090338;28;20059;-71
2022/01/06 10:26:35;;;;;;;13.48;3.13;;;14.90;93.70;;;;;;5064519;28;20076;-71
2022/01/06 10:29:03;;;;;;;13.20;3.67;;;15.30;92.80;;;;;;5080809;28;20041;-71
2022/01/06 10:31:31;;;;;;;10.73;3.42;;;15.80;93.00;;;;;;5072815;28;20447;-72
2022/01/06 10:33:59;;;;;;;10.15;3.05;;;15.70;91.80;;;;;;5073731;28;20088;-71
2022/01/06 10:36:31;;;;;;;14.60;3.95;;;15.80;90.20;;;;;;5074388;28;20052;-72
2022/01/06 10:39:01;;;;;;;9.95;3.47;;;16.20;85.00;;;;;;5071398;28;20106;-71
2022/01/06 10:41:30;;;;;;;9.98;3.15;;;16.40;89.30;;;;;;5072076;28;20045;-72
2022/01/06 10:43:59;;;;;;;10.45;3.53;;;17.10;87.20;;;;;;5072779;28;20060;-73
2022/01/06 10:46:33;;;;;;;14.63;4.18;;;17.10;85.30;;;;;;5072864;28;20135;-72
2022/01/06 10:49:02;;;;;;;9.20;3.17;;;17.20;76.80;;;;;;5073429;28;20055;-72
2022/01/06 10:51:40;;;;;;;8.18;3.45;;;17.10;82.90;;;;;;5072438;28;20114;-71
2022/01/06 10:54:17;;;;;;;12.77;3.13;;;17.10;73.60;;;;;;5073201;28;20084;-71
2022/01/06 10:56:55;;;;;;;12.57;3.42;;;16.80;75.70;;;;;;5072642;28;20060;-71
2022/01/06 10:59:24;;;;;;;13.88;3.58;;;17.30;79.50;;;;;;5072708;28;20439;-73
2022/01/06 11:01:51;;;;;;;11.45;3.88;;;17.30;70.50;;;;;;5072945;28;20555;-72
2022/01/06 11:04:18;;;;;;;15.73;3.65;;;17.80;77.60;;;;;;5072896;28;20060;-73
2022/01/06 11:06:45;;;;;;;11.25;3.88;;;16.80;74.50;;;;;;5072588;28;20088;-73
2022/01/06 11:09:14;;;;;;;10.55;3.80;;;17.00;73.40;;;;;;5072283;28;20052;-72
2022/01/06 11:12:26;;;;;;;11.93;4.03;;;17.00;75.00;;;;;;5074004;28;20053;-72
2022/01/06 11:14:33;;;;;;;11.27;3.70;;;17.10;75.30;;;;;;5070689;28;20049;-72
2022/01/06 11:17:00;;;;;;;12.38;3.65;;;17.70;72.90;;;;;;5063462;28;20408;-72
2022/01/06 11:19:29;;;;;;;11.18;3.47;;;17.10;74.90;;;;;;5065504;28;20133;-74
2022/01/06 11:22:00;;;;;;;14.40;4.10;;;18.00;74.30;;;;;;5059230;28;20076;-71
2022/01/06 11:24:29;;;;;;;11.60;3.55;;;18.20;70.60;;;;;;5056865;28;20132;-72
2022/01/06 11:27:02;;;;;;;14.80;3.80;;;17.00;69.50;;;;;;5064889;28;20137;-71
2022/01/06 11:29:30;;;;;;;8.75;2.97;;;17.80;72.10;;;;;;5052041;28;20496;-72
2022/01/06 11:31:57;;;;;;;11.00;3.97;;;17.40;72.60;;;;;;5063080;28;20100;-71
2022/01/06 11:34:24;;;;;;;14.50;3.55;;;16.90;71.30;;;;;;5069544;28;20121;-72
2022/01/06 11:36:54;;;;;;;15.50;4.28;;;17.00;74.10;;;;;;5069879;28;20048;-73
2022/01/06 11:39:24;;;;;;;10.77;4.07;;;17.40;71.90;;;;;;5054303;28;20053;-71
2022/01/06 11:41:53;;;;;;;15.70;4.07;;;17.30;72.40;;;;;;5060570;28;20049;-72
2022/01/06 11:44:22;;;;;;;13.45;4.05;;;17.60;73.50;;;;;;5070859;28;20135;-72
2022/01/06 11:46:51;;;;;;;12.98;3.50;;;17.70;72.60;;;;;;5060849;28;20091;-71
2022/01/06 11:49:31;;;;;;;12.20;3.42;;;17.70;74.10;;;;;;5058602;28;20139;-71
2022/01/06 11:52:06;;;;;;;9.43;3.38;;;18.10;69.90;;;;;;5069598;28;20079;-72
2022/01/06 11:54:33;;;;;;;12.00;3.40;;;17.70;71.50;;;;;;5071022;28;20230;-71
2022/01/06 11:57:01;;;;;;;9.88;3.35;;;18.20;72.70;;;;;;5051512;28;20535;-71
2022/01/06 11:59:32;;;;;;;12.50;3.00;;;17.80;71.50;;;;;;5050908;28;20103;-71
2022/01/06 12:02:00;;;;;;;8.82;2.75;;;17.60;72.90;;;;;;5068583;28;20110;-72
2022/01/06 12:04:27;;;;;;;9.75;3.22;;;18.00;71.80;;;;;;5070685;28;20060;-71
2022/01/06 12:07:04;;;;;;;12.35;3.35;;;18.10;72.10;;;;;;5068561;28;20082;-71
2022/01/06 12:09:31;;;;;;;10.82;3.25;;;18.20;71.50;;;;;;5049932;28;20412;-71
2022/01/06 12:12:05;;;;;;;8.93;2.78;;;18.10;72.50;;;;;;5050876;28;20729;-71
2022/01/06 12:14:33;;;;;;;8.40;3.22;;;17.70;71.70;;;;;;5050256;28;20080;-72
2022/01/06 12:17:05;;;;;;;11.10;3.55;;;18.20;71.20;;;;;;5050393;28;20088;-72
2022/01/06 12:19:32;;;;;;;12.48;3.53;;;18.30;72.80;;;;;;5050059;28;20053;-71
2022/01/06 12:22:00;;;;;;;9.80;3.55;;;18.60;72.40;;;;;;5051771;28;20045;-71
2022/01/06 12:24:27;;;;;;;11.88;2.88;;;18.10;69.90;;;;;;5049687;28;20561;-72
2022/01/06 12:26:54;;;;;;;10.88;2.85;;;17.90;71.70;;;;;;5050579;28;20071;-72
2022/01/06 12:29:25;;;;;;;12.95;3.60;;;17.40;72.90;;;;;;5060704;28;20059;-72
2022/01/06 12:32:02;;;;;;;9.52;3.08;;;17.40;72.10;;;;;;5050020;28;20060;-72
2022/01/06 12:34:29;;;;;;;12.10;3.17;;;17.20;72.70;;;;;;5066869;28;20052;-72
2022/01/06 12:36:56;;;;;;;7.00;2.78;;;17.80;73.50;;;;;;5058217;28;20060;-72
2022/01/06 12:39:23;;;;;;;9.38;2.88;;;17.50;72.10;;;;;;5065552;28;20053;-72
2022/01/06 12:41:52;;;;;;;9.43;3.20;;;17.40;73.20;;;;;;5067999;28;20101;-72
2022/01/06 12:44:22;;;;;;;9.65;2.80;;;17.20;73.10;;;;;;5069702;28;20088;-71
2022/01/06 12:46:50;;;;;;;12.13;3.40;;;17.60;71.00;;;;;;5051977;28;20095;-72
2022/01/06 12:49:17;;;;;;;9.80;2.95;;;16.70;71.80;;;;;;5050229;28;20053;-73
2022/01/06 12:51:46;;;;;;;12.02;3.42;;;16.80;75.30;;;;;;5066130;28;20045;-71
2022/01/06 12:54:17;;;;;;;12.85;3.25;;;17.00;74.30;;;;;;5066456;28;20107;-73
2022/01/06 12:56:45;;;;;;;13.07;3.63;;;17.40;75.50;;;;;;5049597;28;20142;-72